Terminal Aerodrome Forecast
Issued by NWS Billings, MT

Home | Current Version | Previous Version | Text Only | Print | Product List | Glossary On
Versions: 1 2 3 4 5 6 7 8 9 10 11 12 13 14 15 16 17 18 19 20 21 22 23 24 25 26 27 28 29 30 31 32 33
000
FTUS45 KBYZ 230758 AAB
TAFSHR
TAF AMD
KSHR 230758Z 2308/2406 32022G36KT P6SM FEW100
     FM231100 29010KT P6SM SKC
     FM231600 32012G19KT P6SM SKC
     FM240100 VRB05KT P6SM FEW120=

USA.gov is the U.S. government's official web portal to all federal, state and local government web resources and services.